Time;durP1;ratioP1;P1;durP2;ratioP2;P2;SDS_P1;SDS_P2;PMS_P1;PMS_P2;Temp;Humidity;BMP_temperature;BMP_pressure;BME280_temperature;BME280_humidity;BME280_pressure;Samples;Min_cycle;Max_cycle;Signal;HPM_P1;HPM_P2
2023/09/13 10:09:16;;;;;;;12.18;5.30;;;;;;;19.94;82.28;96701.53;2097728;27;20562;-58
2023/09/13 10:11:21;;;;;;;8.98;4.75;;;;;;;20.11;81.82;96702.78;2100808;27;20597;-58
2023/09/13 10:12:22;;;;;;;7.32;4.30;;;;;;;20.09;80.51;96699.44;2097670;28;20667;-58
2023/09/13 10:13:24;;;;;;;7.65;4.63;;;;;;;20.23;80.53;96714.22;2098233;28;20329;-58
2023/09/13 10:14:26;;;;;;;6.20;4.30;;;;;;;20.21;79.50;96714.34;2092834;28;20655;-58
2023/09/13 10:15:28;;;;;;;7.72;4.55;;;;;;;20.34;79.67;96705.34;2078974;28;20205;-58
2023/09/13 10:16:32;;;;;;;5.40;3.75;;;;;;;20.64;78.65;96715.19;2082407;28;20280;-58
2023/09/13 10:17:35;;;;;;;5.50;3.83;;;;;;;20.74;77.42;96712.66;2081944;28;20197;-58
2023/09/13 10:18:44;;;;;;;6.05;4.28;;;;;;;20.84;77.70;96715.38;2081753;28;20284;-58
2023/09/13 10:19:48;;;;;;;6.15;3.80;;;;;;;20.94;76.17;96707.44;2082411;28;20220;-58
2023/09/13 10:20:51;;;;;;;9.27;3.05;;;;;;;20.80;75.46;96712.13;2088910;28;20195;-58
2023/09/13 10:21:54;;;;;;;3.92;3.00;;;;;;;20.94;74.99;96718.06;2090225;28;20590;-58
2023/09/13 10:22:57;;;;;;;6.15;3.85;;;;;;;21.11;74.97;96712.13;2090040;28;20204;-58
2023/09/13 10:24:06;;;;;;;5.82;3.47;;;;;;;20.95;74.55;96717.09;2089276;28;20197;-58
2023/09/13 10:25:11;;;;;;;5.53;3.85;;;;;;;21.07;74.24;96705.41;2088863;28;20285;-58
2023/09/13 10:26:13;;;;;;;5.40;3.10;;;;;;;21.06;74.96;96714.34;2090235;28;20232;-58
2023/09/13 10:27:17;;;;;;;6.28;3.10;;;;;;;21.10;75.77;96715.75;2090242;28;20192;-58
2023/09/13 10:28:26;;;;;;;8.32;4.38;;;;;;;21.23;74.96;96715.56;2090767;28;20192;-58
2023/09/13 10:29:39;;;;;;;4.68;3.25;;;;;;;21.14;73.47;96708.38;2090410;28;20196;-58
2023/09/13 10:30:43;;;;;;;4.93;3.38;;;;;;;21.12;73.13;96718.31;2091147;28;20200;-61
2023/09/13 10:31:51;;;;;;;4.95;3.45;;;;;;;21.10;73.38;96713.09;2089444;28;20267;-62
2023/09/13 10:32:57;;;;;;;4.80;3.67;;;;;;;21.02;75.11;96708.47;2089098;28;20754;-61
2023/09/13 10:34:03;;;;;;;5.45;3.50;;;;;;;20.98;74.39;96716.84;2091502;28;20234;-61
2023/09/13 10:35:06;;;;;;;7.07;3.22;;;;;;;20.86;74.23;96708.09;2092447;28;20223;-62
2023/09/13 10:36:12;;;;;;;5.78;3.45;;;;;;;20.91;74.92;96707.72;2088934;28;20674;-62
2023/09/13 10:37:39;;;;;;;6.57;3.20;;;;;;;21.07;75.15;96707.25;2092542;28;20283;-61
2023/09/13 10:38:46;;;;;;;6.88;3.40;;;;;;;21.16;74.71;96707.25;2089254;28;20197;-61
2023/09/13 10:39:51;;;;;;;10.85;3.67;;;;;;;21.21;73.92;96714.84;2089581;28;20352;-61
2023/09/13 10:41:01;;;;;;;4.80;3.50;;;;;;;21.29;73.88;96704.41;2090057;28;20203;-62
2023/09/13 10:42:06;;;;;;;5.20;2.92;;;;;;;21.43;73.68;96707.66;2091707;28;20725;-61
2023/09/13 10:43:08;;;;;;;5.68;3.65;;;;;;;20.85;73.45;96709.09;2091581;28;20211;-61
2023/09/13 10:44:11;;;;;;;6.35;3.17;;;;;;;21.16;74.08;96701.13;2091796;28;20851;-61
2023/09/13 10:45:17;;;;;;;5.20;3.38;;;;;;;21.61;72.63;96705.22;2091712;28;20927;-62
2023/09/13 10:46:21;;;;;;;7.32;3.72;;;;;;;22.13;71.34;96705.00;2090806;28;20200;-61
2023/09/13 10:47:22;;;;;;;5.25;2.83;;;;;;;22.47;70.37;96701.97;2091783;28;20192;-61
2023/09/13 10:48:24;;;;;;;7.57;3.83;;;;;;;23.13;69.44;96703.78;2090263;28;20197;-61
2023/09/13 10:49:26;;;;;;;6.30;3.20;;;;;;;23.17;67.65;96701.66;2089370;28;20227;-61
2023/09/13 10:50:27;;;;;;;6.25;3.47;;;;;;;23.00;67.58;96698.75;2091462;28;20609;-61
2023/09/13 10:51:30;;;;;;;5.70;2.50;;;;;;;22.75;67.65;96697.56;2090266;28;20213;-61
2023/09/13 10:52:34;;;;;;;7.45;3.40;;;;;;;23.08;68.63;96702.53;2088834;28;20622;-61
2023/09/13 10:53:36;;;;;;;4.07;2.90;;;;;;;23.26;68.42;96700.81;2090088;28;20235;-61
2023/09/13 10:54:39;;;;;;;3.50;2.47;;;;;;;23.35;67.72;96687.59;2086321;28;20216;-61
2023/09/13 10:55:41;;;;;;;8.70;3.10;;;;;;;23.23;67.58;96702.94;2087129;28;20722;-61
2023/09/13 10:56:43;;;;;;;6.43;2.63;;;;;;;23.18;67.28;96703.34;2090618;28;20196;-61
2023/09/13 10:57:45;;;;;;;4.80;2.95;;;;;;;23.35;68.02;96698.25;2088298;28;20221;-62
2023/09/13 10:58:47;;;;;;;4.15;3.13;;;;;;;23.09;68.76;96704.22;2090361;28;20685;-61
2023/09/13 10:59:51;;;;;;;4.47;3.10;;;;;;;22.91;68.94;96702.28;2105420;28;20235;-62
2023/09/13 11:00:54;;;;;;;5.68;3.75;;;;;;;22.39;68.50;96705.31;2103905;28;20195;-62
2023/09/13 11:01:56;;;;;;;4.80;2.75;;;;;;;22.37;69.29;96703.78;2091187;28;20203;-62
2023/09/13 11:02:59;;;;;;;7.97;3.40;;;;;;;22.43;69.61;96705.88;2086749;28;20200;-62
2023/09/13 11:04:01;;;;;;;8.70;2.83;;;;;;;22.09;70.63;96706.28;2086962;28;20202;-62
2023/09/13 11:05:03;;;;;;;6.03;2.90;;;;;;;21.94;71.41;96706.69;2090521;28;20752;-62
2023/09/13 11:06:05;;;;;;;5.47;3.00;;;;;;;22.18;71.20;96693.00;2089872;28;20193;-63
2023/09/13 11:07:06;;;;;;;4.10;2.83;;;;;;;22.16;69.39;96704.75;2094071;28;20287;-63
2023/09/13 11:08:11;;;;;;;5.25;2.70;;;;;;;21.61;70.98;96700.75;2093814;28;20199;-62
2023/09/13 11:09:18;;;;;;;6.80;3.00;;;;;;;22.08;70.07;96699.25;2090646;28;20207;-62
2023/09/13 11:10:20;;;;;;;5.40;3.30;;;;;;;22.04;71.07;96698.69;2091806;28;20224;-62
2023/09/13 11:11:22;;;;;;;4.72;2.70;;;;;;;22.33;70.36;96714.69;2091307;28;20294;-63
2023/09/13 11:12:28;;;;;;;8.70;3.20;;;;;;;22.53;69.84;96708.53;2089603;28;20203;-62
2023/09/13 11:13:30;;;;;;;10.45;3.45;;;;;;;22.65;69.26;96702.91;2086693;28;20220;-62
2023/09/13 11:14:32;;;;;;;4.53;2.97;;;;;;;22.33;68.81;96711.16;2086696;28;20283;-63
2023/09/13 11:15:47;;;;;;;4.32;2.92;;;;;;;22.23;70.35;96708.50;2089308;28;20235;-62
2023/09/13 11:16:48;;;;;;;4.47;3.13;;;;;;;22.30;70.82;96712.28;2096348;28;20226;-63
2023/09/13 11:18:13;;;;;;;6.03;3.67;;;;;;;22.57;69.74;96717.91;2095450;28;20684;-62
2023/09/13 11:19:17;;;;;;;5.50;3.70;;;;;;;22.26;70.04;96713.56;2089871;28;20196;-62
2023/09/13 11:20:32;;;;;;;11.13;3.38;;;;;;;22.12;70.53;96714.00;2089764;28;20752;-62
2023/09/13 11:21:54;;;;;;;3.60;2.70;;;;;;;22.31;69.92;96711.31;2090859;28;20188;-62
2023/09/13 11:23:09;;;;;;;5.15;3.30;;;;;;;22.18;69.56;96708.94;2085234;28;20203;-63
2023/09/13 11:24:40;;;;;;;7.25;3.10;;;;;;;22.11;70.38;96714.97;2082760;28;20843;-62
2023/09/13 11:26:02;;;;;;;6.07;3.70;;;;;;;21.77;70.66;96710.84;2086114;28;20224;-62
2023/09/13 11:27:18;;;;;;;6.00;3.15;;;;;;;21.79;71.02;96711.56;2084748;28;20208;-62
2023/09/13 11:28:43;;;;;;;6.05;3.90;;;;;;;21.77;70.69;96712.66;2084260;28;20236;-62
2023/09/13 11:29:50;;;;;;;5.55;3.50;;;;;;;21.73;70.83;96708.63;2085310;28;20307;-62
2023/09/13 11:30:53;;;;;;;4.78;3.20;;;;;;;21.82;72.34;96710.44;2085507;28;20576;-62
2023/09/13 11:32:04;;;;;;;5.55;3.30;;;;;;;21.81;71.30;96708.75;2086163;28;20293;-62
2023/09/13 11:33:06;;;;;;;5.90;3.88;;;;;;;22.01;71.13;96706.97;2085746;28;20207;-62
2023/09/13 11:34:13;;;;;;;6.53;3.92;;;;;;;22.33;71.06;96712.03;2081088;28;20250;-63
2023/09/13 11:35:15;;;;;;;4.50;3.53;;;;;;;22.64;69.49;96700.41;2082849;28;20221;-63
2023/09/13 11:36:18;;;;;;;5.35;2.80;;;;;;;22.63;69.19;96706.72;2084800;28;20283;-63
2023/09/13 11:37:19;;;;;;;5.32;3.50;;;;;;;22.64;68.73;96709.22;2083492;28;20736;-62
2023/09/13 11:38:21;;;;;;;6.85;3.58;;;;;;;22.54;68.48;96705.75;2084255;28;20601;-62
2023/09/13 11:39:23;;;;;;;5.43;3.28;;;;;;;22.44;68.86;96715.56;2082516;28;20197;-63
2023/09/13 11:40:25;;;;;;;4.05;2.92;;;;;;;22.32;68.64;96718.31;2084342;28;20284;-62
2023/09/13 11:41:27;;;;;;;5.57;3.40;;;;;;;22.25;69.16;96714.53;2086825;28;20210;-63
2023/09/13 11:42:29;;;;;;;4.78;3.33;;;;;;;22.21;70.25;96718.47;2086337;28;20220;-62
2023/09/13 11:43:37;;;;;;;5.47;3.55;;;;;;;22.11;70.52;96721.09;2084370;28;20205;-62
2023/09/13 11:44:54;;;;;;;7.50;3.60;;;;;;;21.80;70.45;96715.03;2082817;28;20219;-62
2023/09/13 11:46:04;;;;;;;7.10;3.15;;;;;;;21.82;70.88;96715.75;2083372;28;20204;-62
2023/09/13 11:47:10;;;;;;;4.75;3.03;;;;;;;21.80;71.75;96710.59;2083869;28;20193;-62
2023/09/13 11:48:12;;;;;;;5.05;3.50;;;;;;;21.76;70.89;96711.81;2083447;28;20196;-63
2023/09/13 11:49:23;;;;;;;5.40;3.70;;;;;;;21.77;71.76;96718.00;2100149;28;20191;-62
2023/09/13 11:50:48;;;;;;;8.05;3.40;;;;;;;21.90;71.89;96713.25;2093977;28;20247;-60
2023/09/13 11:51:52;;;;;;;7.53;3.58;;;;;;;22.01;71.48;96714.94;2085443;28;20298;-59
2023/09/13 11:53:21;;;;;;;6.35;3.35;;;;;;;21.90;70.96;96709.75;2086318;28;20208;-60
2023/09/13 11:54:26;;;;;;;3.70;2.70;;;;;;;22.11;71.32;96709.66;2087115;28;20792;-60
2023/09/13 11:55:28;;;;;;;4.50;3.33;;;;;;;21.99;70.50;96709.78;2081010;28;20612;-60
2023/09/13 11:56:39;;;;;;;4.68;3.30;;;;;;;22.02;70.95;96714.78;2084830;28;20208;-60
2023/09/13 11:57:53;;;;;;;4.50;3.33;;;;;;;22.23;71.74;96710.34;2084661;28;20200;-59
2023/09/13 11:58:58;;;;;;;4.43;3.25;;;;;;;22.25;70.53;96716.38;2084520;28;20201;-60
2023/09/13 12:00:04;;;;;;;5.07;3.22;;;;;;;22.43;69.68;96712.03;2085218;28;20595;-60
2023/09/13 12:01:07;;;;;;;4.47;3.00;;;;;;;22.55;69.03;96706.56;2081020;28;20608;-60
2023/09/13 12:02:11;;;;;;;4.45;2.72;;;;;;;22.74;69.29;96717.19;2082811;28;20279;-60
2023/09/13 12:03:17;;;;;;;6.75;3.78;;;;;;;22.85;66.74;96702.03;2084309;28;20644;-60
2023/09/13 12:04:43;;;;;;;4.78;2.95;;;;;;;22.80;67.64;96705.13;2099186;28;20553;-60
2023/09/13 12:05:48;;;;;;;9.98;2.75;;;;;;;22.60;68.15;96714.97;2093452;28;20197;-60
2023/09/13 12:07:10;;;;;;;7.43;3.05;;;;;;;22.87;68.16;96705.38;2084415;28;20295;-59
2023/09/13 12:08:21;;;;;;;4.75;3.08;;;;;;;22.81;67.56;96718.28;2084556;28;20200;-59
2023/09/13 12:09:26;;;;;;;5.07;3.17;;;;;;;22.70;67.43;96707.78;2084262;28;20809;-60
2023/09/13 12:10:37;;;;;;;6.28;4.50;;;;;;;22.76;66.62;96706.41;2085379;28;20216;-59
2023/09/13 12:11:43;;;;;;;5.20;3.70;;;;;;;22.89;66.60;96703.44;2083889;28;20232;-59
2023/09/13 12:12:48;;;;;;;5.45;3.10;;;;;;;22.69;66.99;96707.94;2082170;28;20209;-59
2023/09/13 12:14:03;;;;;;;5.20;2.78;;;;;;;22.97;67.53;96707.03;2083011;28;20204;-60
2023/09/13 12:15:17;;;;;;;6.13;2.63;;;;;;;23.37;67.72;96718.41;2083507;28;20224;-60
2023/09/13 12:16:22;;;;;;;4.00;2.70;;;;;;;23.37;66.42;96715.75;2083043;28;20201;-60
2023/09/13 12:17:36;;;;;;;4.28;3.03;;;;;;;23.44;65.37;96711.53;2080997;28;20752;-59
2023/09/13 12:18:39;;;;;;;4.18;2.70;;;;;;;23.54;65.83;96710.63;2082549;28;20193;-60
2023/09/13 12:19:41;;;;;;;4.90;3.33;;;;;;;23.53;66.31;96706.28;2083433;28;20583;-59
2023/09/13 12:20:42;;;;;;;4.32;2.75;;;;;;;23.76;66.42;96710.22;2083886;28;20204;-60
2023/09/13 12:21:45;;;;;;;5.97;3.33;;;;;;;23.83;65.21;96709.63;2084926;28;20606;-59
2023/09/13 12:22:46;;;;;;;8.07;3.10;;;;;;;23.48;66.39;96707.56;2083166;28;20193;-60
2023/09/13 12:23:48;;;;;;;4.38;3.13;;;;;;;23.31;66.07;96716.34;2084743;28;20249;-60
2023/09/13 12:24:58;;;;;;;4.80;2.70;;;;;;;23.46;66.33;96701.56;2082664;28;20221;-60
2023/09/13 12:25:59;;;;;;;4.38;3.25;;;;;;;23.63;66.40;96707.09;2083426;28;20216;-60
2023/09/13 12:27:01;;;;;;;6.88;2.90;;;;;;;23.35;66.43;96699.09;2083885;28;20773;-59
2023/09/13 12:28:03;;;;;;;4.20;2.80;;;;;;;23.62;67.08;96705.41;2082843;28;20197;-60
2023/09/13 12:29:05;;;;;;;4.88;3.30;;;;;;;23.82;65.61;96698.13;2082890;28;20204;-59
2023/09/13 12:30:08;;;;;;;4.40;3.20;;;;;;;23.60;64.84;96697.56;2083781;28;20216;-60
2023/09/13 12:31:12;;;;;;;5.07;3.20;;;;;;;23.67;66.08;96699.59;2084654;28;20287;-60
2023/09/13 12:32:15;;;;;;;6.90;5.13;;;;;;;23.66;65.41;96700.63;2084002;28;20299;-60
2023/09/13 12:33:17;;;;;;;9.05;5.63;;;;;;;24.16;64.62;96700.16;2083968;28;20221;-60
2023/09/13 12:34:18;;;;;;;6.20;4.50;;;;;;;23.86;64.11;96691.50;2083086;28;20201;-61
2023/09/13 12:35:20;;;;;;;12.43;8.55;;;;;;;23.90;64.38;96697.38;2085185;28;20235;-61
2023/09/13 12:36:24;;;;;;;6.43;3.88;;;;;;;24.15;65.19;96693.16;2080619;28;20228;-60
2023/09/13 12:37:26;;;;;;;3.88;2.53;;;;;;;24.13;63.52;96695.13;2083029;28;20220;-60
2023/09/13 12:38:42;;;;;;;5.80;2.90;;;;;;;23.94;64.52;96698.78;2083040;28;20193;-60
2023/09/13 12:39:44;;;;;;;3.42;2.45;;;;;;;24.15;63.20;96700.31;2083674;28;20216;-60
2023/09/13 12:40:54;;;;;;;3.85;2.58;;;;;;;24.19;64.01;96699.84;2084222;28;20539;-60
2023/09/13 12:41:56;;;;;;;4.45;3.10;;;;;;;23.98;64.50;96700.16;2084171;28;20197;-60
2023/09/13 12:42:58;;;;;;;7.13;2.70;;;;;;;24.46;63.58;96698.91;2085041;28;20525;-60
2023/09/13 12:44:00;;;;;;;4.18;2.60;;;;;;;24.52;63.41;96701.94;2084620;28;20283;-60
2023/09/13 12:45:01;;;;;;;5.18;3.15;;;;;;;24.90;62.50;96702.59;2085078;28;20224;-60
2023/09/13 12:46:07;;;;;;;4.05;2.83;;;;;;;25.04;62.01;96701.16;2086255;28;20245;-60
2023/09/13 12:47:09;;;;;;;5.72;2.80;;;;;;;24.83;61.72;96707.72;2085530;28;20279;-60
2023/09/13 12:48:12;;;;;;;4.22;2.60;;;;;;;24.77;62.19;96709.19;2085568;28;20216;-60
2023/09/13 12:49:14;;;;;;;3.50;2.15;;;;;;;24.70;61.39;96704.66;2085560;28;20628;-60
2023/09/13 12:50:15;;;;;;;3.72;2.70;;;;;;;24.10;63.04;96706.94;2084470;28;20556;-60
2023/09/13 12:51:34;;;;;;;4.78;3.33;;;;;;;23.98;63.62;96710.00;2084578;28;20204;-60
2023/09/13 12:52:36;;;;;;;4.82;3.08;;;;;;;23.98;64.35;96702.81;2084723;28;20735;-60
2023/09/13 12:53:38;;;;;;;4.47;3.22;;;;;;;23.99;64.79;96709.84;2084593;28;20196;-60
2023/09/13 12:54:42;;;;;;;4.55;3.25;;;;;;;24.28;64.89;96712.28;2083586;28;20220;-60
2023/09/13 12:55:44;;;;;;;8.00;3.47;;;;;;;24.21;63.79;96707.69;2080635;28;20197;-60
2023/09/13 12:56:45;;;;;;;4.68;2.45;;;;;;;24.26;63.24;96705.41;2084060;28;20209;-60
2023/09/13 12:57:46;;;;;;;5.53;3.10;;;;;;;23.94;64.46;96712.94;2083712;28;20193;-60
2023/09/13 12:58:52;;;;;;;5.70;2.72;;;;;;;24.04;63.85;96707.53;2084737;28;20192;-60
2023/09/13 12:59:55;;;;;;;3.20;2.38;;;;;;;24.28;64.60;96711.44;2083057;28;20245;-60
2023/09/13 13:01:03;;;;;;;5.28;2.50;;;;;;;24.31;63.79;96702.28;2083067;28;20208;-60
2023/09/13 13:02:05;;;;;;;4.95;2.15;;;;;;;24.33;63.15;96706.50;2083437;28;20851;-59
2023/09/13 13:03:06;;;;;;;4.32;2.65;;;;;;;24.38;63.92;96712.19;2082905;28;20243;-60
2023/09/13 13:04:09;;;;;;;3.80;2.53;;;;;;;24.41;63.27;96706.53;2085283;28;20188;-60
2023/09/13 13:05:15;;;;;;;4.07;2.70;;;;;;;24.22;63.63;96707.53;2083997;28;20236;-60
2023/09/13 13:06:16;;;;;;;6.15;2.97;;;;;;;24.83;63.23;96710.41;2083884;28;20550;-59
2023/09/13 13:07:27;;;;;;;4.43;2.55;;;;;;;24.58;63.12;96702.19;2083819;28;20204;-60
2023/09/13 13:08:33;;;;;;;3.97;2.35;;;;;;;24.65;64.04;96704.28;2080378;28;20621;-60
2023/09/13 13:09:35;;;;;;;4.95;2.72;;;;;;;25.27;61.84;96699.63;2083579;28;20621;-61
2023/09/13 13:10:56;;;;;;;4.70;3.22;;;;;;;25.43;61.78;96706.06;2083310;28;20200;-60
2023/09/13 13:11:57;;;;;;;4.80;3.17;;;;;;;25.67;59.57;96702.66;2084594;28;20554;-60
2023/09/13 13:12:59;;;;;;;28.80;17.88;;;;;;;25.64;60.27;96702.16;2082768;28;20201;-60
2023/09/13 13:14:01;;;;;;;3.60;2.30;;;;;;;25.83;59.74;96701.06;2085290;28;20246;-60
2023/09/13 13:15:03;;;;;;;3.53;2.20;;;;;;;25.88;60.39;96707.56;2084743;28;20224;-60
2023/09/13 13:16:19;;;;;;;3.63;2.70;;;;;;;25.62;61.22;96707.66;2083921;28;20200;-60
2023/09/13 13:17:40;;;;;;;3.45;2.05;;;;;;;25.30;60.92;96703.00;2084243;28;20280;-60
2023/09/13 13:18:49;;;;;;;4.35;2.40;;;;;;;25.00;62.44;96706.00;2085185;28;20234;-60
2023/09/13 13:19:56;;;;;;;4.53;1.95;;;;;;;24.80;63.22;96705.38;2083226;28;20702;-60
2023/09/13 13:20:58;;;;;;;3.40;2.35;;;;;;;24.59;62.20;96709.22;2083922;28;20204;-60
2023/09/13 13:22:16;;;;;;;4.20;2.60;;;;;;;24.58;62.35;96712.00;2085925;28;20203;-60
2023/09/13 13:23:18;;;;;;;3.40;2.25;;;;;;;24.15;62.70;96710.97;2084627;28;20215;-60
2023/09/13 13:24:20;;;;;;;3.55;2.20;;;;;;;23.95;63.65;96706.63;2082108;28;20284;-60
2023/09/13 13:25:21;;;;;;;4.93;2.00;;;;;;;23.94;63.65;96706.78;2083850;28;20231;-60
2023/09/13 13:26:23;;;;;;;3.60;2.75;;;;;;;23.83;64.69;96707.78;2080284;28;20284;-60
2023/09/13 13:27:28;;;;;;;3.03;2.05;;;;;;;23.50;64.88;96711.91;2083181;28;20864;-60
2023/09/13 13:28:30;;;;;;;3.90;2.30;;;;;;;23.76;64.61;96709.41;2083697;28;20741;-60
2023/09/13 13:29:34;;;;;;;6.07;2.50;;;;;;;23.70;65.34;96710.00;2083064;28;20664;-60
2023/09/13 13:30:37;;;;;;;3.90;2.35;;;;;;;23.68;65.13;96704.81;2083705;28;20207;-60
2023/09/13 13:31:39;;;;;;;3.30;2.10;;;;;;;23.63;64.87;96705.25;2083807;28;20193;-60
2023/09/13 13:32:41;;;;;;;5.15;2.80;;;;;;;24.10;64.57;96709.59;2080225;28;20208;-60
2023/09/13 13:33:43;;;;;;;14.57;10.13;;;;;;;24.44;63.65;96710.72;2080660;28;20279;-60
2023/09/13 13:34:45;;;;;;;9.38;5.13;;;;;;;24.90;63.37;96710.59;2080616;28;20244;-60
2023/09/13 13:35:47;;;;;;;5.80;2.83;;;;;;;25.11;62.20;96710.22;2081848;28;20266;-60
2023/09/13 13:36:48;;;;;;;21.27;13.23;;;;;;;26.16;60.78;96709.19;2083188;28;20201;-60
2023/09/13 13:37:49;;;;;;;5.50;3.97;;;;;;;25.51;60.88;96708.78;2083749;28;20200;-59
2023/09/13 13:38:51;;;;;;;3.63;2.60;;;;;;;24.66;62.27;96705.94;2083905;28;20624;-59
2023/09/13 13:39:52;;;;;;;4.25;2.70;;;;;;;24.34;62.88;96702.84;2084104;28;20306;-59
2023/09/13 13:41:14;;;;;;;3.03;2.30;;;;;;;24.27;62.77;96705.25;2082959;28;20204;-59
2023/09/13 13:42:15;;;;;;;3.22;1.95;;;;;;;24.35;62.07;96703.66;2084313;28;20197;-59
2023/09/13 13:43:17;;;;;;;3.35;2.05;;;;;;;24.48;62.10;96711.25;2085402;28;20189;-60
2023/09/13 13:44:18;;;;;;;7.00;2.47;;;;;;;24.65;62.20;96696.28;2086200;28;20635;-59
2023/09/13 13:45:20;;;;;;;6.00;2.17;;;;;;;24.34;63.28;96702.84;2083412;28;20220;-59
2023/09/13 13:46:22;;;;;;;9.57;2.80;;;;;;;24.04;64.04;96704.06;2080107;28;20205;-59
2023/09/13 13:47:24;;;;;;;3.80;2.35;;;;;;;24.21;63.77;96705.03;2080394;28;20220;-59
2023/09/13 13:48:25;;;;;;;5.13;2.20;;;;;;;24.05;64.38;96705.72;2082803;28;20632;-59
2023/09/13 13:49:26;;;;;;;4.43;2.45;;;;;;;24.08;64.46;96700.91;2082769;28;20228;-59
2023/09/13 13:50:28;;;;;;;4.85;2.05;;;;;;;24.74;62.66;96704.16;2083356;28;20200;-59
2023/09/13 13:51:30;;;;;;;3.78;2.45;;;;;;;25.04;61.60;96702.03;2082505;28;20296;-59
2023/09/13 13:52:32;;;;;;;4.50;2.55;;;;;;;24.92;61.83;96700.59;2082865;28;20329;-59
2023/09/13 13:53:33;;;;;;;5.40;2.63;;;;;;;25.07;61.28;96699.03;2084352;28;20200;-59
2023/09/13 13:54:35;;;;;;;5.55;2.45;;;;;;;24.70;61.92;96693.97;2084792;28;20246;-59
2023/09/13 13:55:38;;;;;;;4.68;2.58;;;;;;;24.72;62.14;96698.16;2084266;28;20222;-59
2023/09/13 13:56:40;;;;;;;4.80;3.00;;;;;;;24.28;63.14;96696.25;2080037;28;20283;-59
2023/09/13 13:57:42;;;;;;;5.63;2.13;;;;;;;24.07;63.76;96698.41;2080485;28;20723;-58
2023/09/13 13:58:43;;;;;;;4.00;2.38;;;;;;;24.15;62.89;96703.84;2082720;28;20201;-59
2023/09/13 13:59:45;;;;;;;4.57;2.50;;;;;;;23.89;63.27;96701.84;2081424;28;20225;-58
2023/09/13 14:00:48;;;;;;;4.20;2.35;;;;;;;23.58;63.58;96696.88;2081069;28;20555;-59
2023/09/13 14:01:49;;;;;;;4.07;1.80;;;;;;;23.52;63.38;96704.63;2081805;28;20225;-59
2023/09/13 14:02:54;;;;;;;4.88;2.40;;;;;;;23.82;62.42;96703.47;2082904;28;20667;-59
2023/09/13 14:03:55;;;;;;;5.68;2.42;;;;;;;23.71;62.80;96701.84;2084767;28;20284;-59
2023/09/13 14:04:57;;;;;;;4.43;2.03;;;;;;;23.69;62.44;96700.31;2084751;28;20220;-59
2023/09/13 14:05:59;;;;;;;4.43;2.17;;;;;;;23.59;62.09;96695.03;2085035;28;20202;-59
2023/09/13 14:07:00;;;;;;;2.90;1.63;;;;;;;23.62;62.22;96698.25;2079901;28;20192;-59
2023/09/13 14:08:02;;;;;;;3.90;1.92;;;;;;;23.58;62.86;96693.34;2082797;28;20201;-59
2023/09/13 14:09:03;;;;;;;4.45;2.20;;;;;;;23.28;63.64;96701.47;2080657;28;20212;-59
2023/09/13 14:10:06;;;;;;;7.78;2.33;;;;;;;23.36;63.78;96702.59;2080572;28;20324;-59
2023/09/13 14:11:07;;;;;;;7.18;3.08;;;;;;;23.71;63.96;96701.84;2083235;28;20286;-59
2023/09/13 14:12:08;;;;;;;3.80;2.45;;;;;;;23.73;63.81;96693.69;2082992;28;20326;-59
2023/09/13 14:13:12;;;;;;;4.50;2.50;;;;;;;23.74;63.44;96698.03;2084088;28;20594;-59
2023/09/13 14:14:18;;;;;;;5.15;2.53;;;;;;;23.80;63.82;96698.25;2084073;28;20766;-59
2023/09/13 14:15:20;;;;;;;8.68;2.35;;;;;;;23.89;63.50;96693.84;2082879;28;20217;-59
2023/09/13 14:16:22;;;;;;;5.00;3.13;;;;;;;23.64;64.03;96696.28;2083703;28;20207;-59
2023/09/13 14:17:24;;;;;;;5.65;2.50;;;;;;;23.86;63.44;96699.50;2083907;28;20549;-59
2023/09/13 14:18:25;;;;;;;4.80;2.55;;;;;;;23.89;63.37;96693.03;2082125;28;20224;-59
2023/09/13 14:19:27;;;;;;;5.22;2.88;;;;;;;23.59;64.02;96695.88;2082143;28;20196;-59
2023/09/13 14:20:29;;;;;;;3.10;2.08;;;;;;;24.01;63.24;96694.53;2082063;28;20681;-59
2023/09/13 14:21:31;;;;;;;6.03;1.98;;;;;;;24.19;62.96;96685.66;2084095;28;20196;-59
2023/09/13 14:22:32;;;;;;;6.53;2.58;;;;;;;24.36;62.26;96686.66;2082860;28;20196;-58
2023/09/13 14:23:34;;;;;;;5.82;2.90;;;;;;;24.35;61.95;96690.31;2083056;28;20448;-59
2023/09/13 14:24:35;;;;;;;5.50;2.53;;;;;;;24.56;62.21;96690.00;2082265;28;20200;-59
2023/09/13 14:25:37;;;;;;;4.22;2.22;;;;;;;25.04;61.23;96695.81;2082860;28;20647;-58
2023/09/13 14:26:39;;;;;;;3.88;2.17;;;;;;;25.42;60.27;96691.06;2083017;28;20800;-59
2023/09/13 14:27:41;;;;;;;7.65;2.25;;;;;;;26.11;59.33;96698.13;2083673;28;20201;-59
2023/09/13 14:29:02;;;;;;;6.20;1.98;;;;;;;26.09;58.44;96695.59;2084637;28;20239;-59
2023/09/13 14:30:04;;;;;;;3.10;2.10;;;;;;;26.24;58.86;96702.00;2084402;28;20779;-59
2023/09/13 14:31:10;;;;;;;3.72;2.50;;;;;;;26.30;57.31;96695.13;2083644;28;20200;-59
2023/09/13 14:32:15;;;;;;;6.32;2.53;;;;;;;26.87;56.85;96701.50;2082523;28;20220;-59
2023/09/13 14:33:18;;;;;;;6.10;2.00;;;;;;;26.69;56.29;96702.50;2082708;28;20312;-59
2023/09/13 14:34:21;;;;;;;5.78;2.50;;;;;;;26.65;56.10;96698.50;2084221;28;20655;-59
2023/09/13 14:35:22;;;;;;;5.90;2.10;;;;;;;26.69;55.80;96698.97;2082685;28;20672;-59
2023/09/13 14:36:23;;;;;;;3.35;2.10;;;;;;;27.02;55.14;96693.59;2081390;28;20219;-59
2023/09/13 14:37:26;;;;;;;5.65;2.55;;;;;;;26.70;55.45;96696.13;2080095;28;20201;-59
2023/09/13 14:38:27;;;;;;;6.70;2.38;;;;;;;26.44;56.52;96693.63;2080843;28;20247;-59
2023/09/13 14:39:29;;;;;;;3.97;2.50;;;;;;;25.83;58.32;96691.19;2081920;28;20273;-59
2023/09/13 14:40:31;;;;;;;3.75;2.40;;;;;;;25.65;59.84;96693.97;2083834;28;20203;-59
2023/09/13 14:41:32;;;;;;;5.40;2.55;;;;;;;24.67;62.86;96700.47;2084150;28;20645;-60
2023/09/13 14:42:34;;;;;;;7.30;2.88;;;;;;;24.62;63.80;96708.88;2083738;28;20901;-59
2023/09/13 14:43:36;;;;;;;7.65;3.00;;;;;;;24.24;64.76;96710.91;2083431;28;20315;-59
2023/09/13 14:44:39;;;;;;;5.70;3.17;;;;;;;23.44;66.89;96702.69;2081034;28;20267;-59
2023/09/13 14:45:40;;;;;;;7.93;2.70;;;;;;;23.42;67.21;96707.34;2083037;28;20224;-58
2023/09/13 14:46:44;;;;;;;6.72;3.10;;;;;;;23.41;67.80;96711.81;2083807;28;20196;-59
2023/09/13 14:47:46;;;;;;;5.90;2.72;;;;;;;23.61;67.07;96703.72;2087464;28;20938;-60
2023/09/13 14:48:52;;;;;;;4.72;2.65;;;;;;;23.93;65.05;96703.28;2086991;28;20203;-59
2023/09/13 14:49:53;;;;;;;4.90;3.03;;;;;;;23.87;66.02;96711.84;2079504;28;20257;-59
2023/09/13 14:50:55;;;;;;;11.93;2.45;;;;;;;24.01;66.05;96707.88;2084157;28;20642;-59
2023/09/13 14:51:56;;;;;;;9.75;3.63;;;;;;;23.87;66.80;96706.53;2084101;28;20193;-59
2023/09/13 14:52:58;;;;;;;3.42;2.47;;;;;;;24.26;65.84;96710.75;2082915;28;20201;-59
2023/09/13 14:53:59;;;;;;;4.97;2.03;;;;;;;24.18;65.65;96705.34;2080565;28;20199;-59
2023/09/13 14:55:00;;;;;;;3.65;2.22;;;;;;;24.04;65.38;96709.38;2080771;28;20225;-59
2023/09/13 14:56:02;;;;;;;6.53;2.78;;;;;;;24.22;65.84;96720.06;2082063;28;20194;-59
2023/09/13 14:57:04;;;;;;;3.78;2.80;;;;;;;24.29;65.94;96708.63;2082218;28;20200;-59
2023/09/13 14:58:05;;;;;;;8.88;3.00;;;;;;;24.94;64.42;96707.47;2084303;28;20201;-59
2023/09/13 14:59:07;;;;;;;6.05;2.72;;;;;;;25.09;63.52;96706.91;2083691;28;20208;-59
2023/09/13 15:00:09;;;;;;;5.47;2.72;;;;;;;24.99;63.93;96715.00;2084319;28;20217;-59
2023/09/13 15:01:10;;;;;;;4.80;2.80;;;;;;;25.16;63.86;96715.13;2084718;28;20648;-58
2023/09/13 15:02:12;;;;;;;5.03;2.60;;;;;;;25.84;62.51;96708.91;2081269;28;20204;-58
2023/09/13 15:03:14;;;;;;;9.40;2.95;;;;;;;25.10;63.39;96713.91;2083763;28;20204;-58
2023/09/13 15:04:15;;;;;;;8.15;3.47;;;;;;;24.57;64.39;96716.53;2084163;28;20201;-58
2023/09/13 15:05:17;;;;;;;3.30;2.25;;;;;;;24.78;63.79;96718.03;2083356;28;20604;-58
2023/09/13 15:06:19;;;;;;;6.07;2.70;;;;;;;24.29;64.11;96711.28;2085393;28;20207;-58
2023/09/13 15:07:20;;;;;;;6.22;3.20;;;;;;;23.97;65.12;96714.47;2086741;28;20192;-58
2023/09/13 15:08:22;;;;;;;9.13;2.75;;;;;;;23.76;66.14;96712.88;2081305;28;20201;-58
2023/09/13 15:09:24;;;;;;;4.80;2.90;;;;;;;23.63;66.51;96715.09;2081815;28;20197;-58
2023/09/13 15:10:26;;;;;;;6.65;3.03;;;;;;;23.31;67.82;96719.00;2082796;28;20201;-58
2023/09/13 15:11:31;;;;;;;8.45;2.60;;;;;;;22.95;67.62;96713.50;2084961;28;20201;-58
2023/09/13 15:12:33;;;;;;;5.35;2.03;;;;;;;23.18;67.76;96718.50;2084532;28;20249;-58
2023/09/13 15:13:35;;;;;;;10.52;2.72;;;;;;;23.27;67.22;96717.63;2085457;28;20753;-58
2023/09/13 15:14:36;;;;;;;5.15;2.63;;;;;;;23.24;67.19;96716.09;2083144;28;20201;-57